LTBL/IGI METAR and TAF weather

Enter ICAO airport designator
Station Type Date Time Source
LTBL METAR 2019/06/17 03:50 UTC NOAA

LTBL 170350Z 31003KT CAVOK 22/16 Q1008 NOSIG RMK RWY17 /////KT


Station Type Date Time Source
LTBL Decoded METAR 2019/06/17 03:50 UTC NOAA

Izmir / Cigli, Turkey (LTBL) 38-30N 027-01E 5M
Jun 16, 2019 - 11:50 PM EDT / 2019.06.17 0350 UTC
Wind: from the NW (310 degrees) at 3 MPH (3 KT):0
Visibility: greater than 7 mile(s):0
Temperature: 71 F (22 C)
Dew Point: 60 F (16 C)
Relative Humidity: 68%
Pressure (altimeter): 29.77 in. Hg (1008 hPa)
ob: LTBL 170350Z 31003KT CAVOK 22/16 Q1008 NOSIG RMK RWY17 /////KT
cycle: 4

Station Type Date Time Source
LTBL TAF UTC NOAA

Error!

Example: see airport list